sensor_id;sensor_type;location;lat;lon;timestamp;P1;durP1;ratioP1;P2;durP2;ratioP2
26040;SDS011;13816;53.628;9.950;2023-10-19T00:01:24;10.17;;;8.23;;
26040;SDS011;13816;53.628;9.950;2023-10-19T00:03:58;10.80;;;7.67;;
26040;SDS011;13816;53.628;9.950;2023-10-19T00:06:32;16.40;;;9.07;;
26040;SDS011;13816;53.628;9.950;2023-10-19T00:09:00;14.73;;;8.60;;
26040;SDS011;13816;53.628;9.950;2023-10-19T00:11:31;12.60;;;8.40;;
26040;SDS011;13816;53.628;9.950;2023-10-19T00:14:25;10.17;;;7.80;;
26040;SDS011;13816;53.628;9.950;2023-10-19T00:17:02;10.67;;;8.30;;
26040;SDS011;13816;53.628;9.950;2023-10-19T00:19:39;10.67;;;7.50;;
26040;SDS011;13816;53.628;9.950;2023-10-19T00:22:26;14.40;;;9.70;;
26040;SDS011;13816;53.628;9.950;2023-10-19T00:25:06;11.93;;;8.17;;
26040;SDS011;13816;53.628;9.950;2023-10-19T00:27:42;9.20;;;8.23;;
26040;SDS011;13816;53.628;9.950;2023-10-19T00:30:19;14.80;;;9.60;;
26040;SDS011;13816;53.628;9.950;2023-10-19T00:33:03;15.00;;;9.33;;
26040;SDS011;13816;53.628;9.950;2023-10-19T00:35:41;10.93;;;9.60;;
26040;SDS011;13816;53.628;9.950;2023-10-19T00:38:24;12.10;;;9.13;;
26040;SDS011;13816;53.628;9.950;2023-10-19T00:41:09;11.77;;;9.53;;
26040;SDS011;13816;53.628;9.950;2023-10-19T00:43:48;10.47;;;8.97;;
26040;SDS011;13816;53.628;9.950;2023-10-19T00:46:30;13.60;;;9.37;;
26040;SDS011;13816;53.628;9.950;2023-10-19T00:49:12;13.77;;;10.50;;
26040;SDS011;13816;53.628;9.950;2023-10-19T00:51:49;13.17;;;8.70;;
26040;SDS011;13816;53.628;9.950;2023-10-19T00:54:26;11.90;;;10.10;;
26040;SDS011;13816;53.628;9.950;2023-10-19T00:57:11;14.80;;;9.87;;
26040;SDS011;13816;53.628;9.950;2023-10-19T00:59:45;19.03;;;10.47;;
26040;SDS011;13816;53.628;9.950;2023-10-19T01:02:34;11.93;;;9.57;;
26040;SDS011;13816;53.628;9.950;2023-10-19T01:05:16;15.03;;;10.07;;
26040;SDS011;13816;53.628;9.950;2023-10-19T01:07:54;18.17;;;11.30;;
26040;SDS011;13816;53.628;9.950;2023-10-19T01:10:35;13.13;;;9.33;;
26040;SDS011;13816;53.628;9.950;2023-10-19T01:13:17;20.20;;;9.93;;
26040;SDS011;13816;53.628;9.950;2023-10-19T01:15:46;13.93;;;10.30;;
26040;SDS011;13816;53.628;9.950;2023-10-19T01:18:24;14.50;;;9.13;;
26040;SDS011;13816;53.628;9.950;2023-10-19T01:21:09;13.90;;;10.17;;
26040;SDS011;13816;53.628;9.950;2023-10-19T01:23:39;12.57;;;9.40;;
26040;SDS011;13816;53.628;9.950;2023-10-19T01:26:12;11.90;;;9.43;;
26040;SDS011;13816;53.628;9.950;2023-10-19T01:28:48;13.90;;;9.17;;
26040;SDS011;13816;53.628;9.950;2023-10-19T01:31:39;12.70;;;9.40;;
26040;SDS011;13816;53.628;9.950;2023-10-19T01:34:25;11.53;;;8.90;;
26040;SDS011;13816;53.628;9.950;2023-10-19T01:36:54;11.57;;;9.47;;
26040;SDS011;13816;53.628;9.950;2023-10-19T01:39:23;12.10;;;9.10;;
26040;SDS011;13816;53.628;9.950;2023-10-19T01:41:55;15.57;;;10.37;;
26040;SDS011;13816;53.628;9.950;2023-10-19T01:44:37;10.57;;;8.23;;
26040;SDS011;13816;53.628;9.950;2023-10-19T01:47:09;18.10;;;10.30;;
26040;SDS011;13816;53.628;9.950;2023-10-19T01:49:41;13.37;;;9.40;;
26040;SDS011;13816;53.628;9.950;2023-10-19T01:52:20;12.20;;;9.90;;
26040;SDS011;13816;53.628;9.950;2023-10-19T01:54:52;11.53;;;9.27;;
26040;SDS011;13816;53.628;9.950;2023-10-19T01:57:29;12.60;;;9.37;;
26040;SDS011;13816;53.628;9.950;2023-10-19T02:00:00;16.70;;;9.23;;
26040;SDS011;13816;53.628;9.950;2023-10-19T02:02:40;13.60;;;9.47;;
26040;SDS011;13816;53.628;9.950;2023-10-19T02:05:14;16.83;;;9.80;;
26040;SDS011;13816;53.628;9.950;2023-10-19T02:07:53;13.47;;;8.97;;
26040;SDS011;13816;53.628;9.950;2023-10-19T02:10:22;11.30;;;10.10;;
26040;SDS011;13816;53.628;9.950;2023-10-19T02:12:54;17.03;;;10.00;;
26040;SDS011;13816;53.628;9.950;2023-10-19T02:15:33;16.67;;;10.60;;
26040;SDS011;13816;53.628;9.950;2023-10-19T02:18:29;16.90;;;10.87;;
26040;SDS011;13816;53.628;9.950;2023-10-19T02:21:01;14.23;;;9.77;;
26040;SDS011;13816;53.628;9.950;2023-10-19T02:23:36;13.53;;;9.63;;
26040;SDS011;13816;53.628;9.950;2023-10-19T02:26:04;12.50;;;9.33;;
26040;SDS011;13816;53.628;9.950;2023-10-19T02:28:36;17.53;;;10.50;;
26040;SDS011;13816;53.628;9.950;2023-10-19T02:31:16;14.17;;;10.23;;
26040;SDS011;13816;53.628;9.950;2023-10-19T02:33:54;16.80;;;10.30;;
26040;SDS011;13816;53.628;9.950;2023-10-19T02:36:34;11.93;;;9.30;;
26040;SDS011;13816;53.628;9.950;2023-10-19T02:39:08;14.90;;;10.67;;
26040;SDS011;13816;53.628;9.950;2023-10-19T02:41:46;13.20;;;9.30;;
26040;SDS011;13816;53.628;9.950;2023-10-19T02:44:20;15.30;;;9.33;;
26040;SDS011;13816;53.628;9.950;2023-10-19T02:46:55;12.67;;;9.97;;
26040;SDS011;13816;53.628;9.950;2023-10-19T02:49:34;15.50;;;11.17;;
26040;SDS011;13816;53.628;9.950;2023-10-19T02:52:13;13.90;;;9.80;;
26040;SDS011;13816;53.628;9.950;2023-10-19T02:54:45;15.77;;;10.33;;
26040;SDS011;13816;53.628;9.950;2023-10-19T02:57:24;16.57;;;10.67;;
26040;SDS011;13816;53.628;9.950;2023-10-19T02:59:54;15.30;;;10.90;;
26040;SDS011;13816;53.628;9.950;2023-10-19T03:02:24;13.70;;;9.60;;
26040;SDS011;13816;53.628;9.950;2023-10-19T03:04:56;15.67;;;10.77;;
26040;SDS011;13816;53.628;9.950;2023-10-19T03:07:31;14.47;;;11.23;;
26040;SDS011;13816;53.628;9.950;2023-10-19T03:10:03;16.67;;;10.60;;
26040;SDS011;13816;53.628;9.950;2023-10-19T03:12:35;12.13;;;10.40;;
26040;SDS011;13816;53.628;9.950;2023-10-19T03:15:24;15.47;;;10.37;;
26040;SDS011;13816;53.628;9.950;2023-10-19T03:17:56;17.90;;;11.63;;
26040;SDS011;13816;53.628;9.950;2023-10-19T03:20:29;19.30;;;12.23;;
26040;SDS011;13816;53.628;9.950;2023-10-19T03:23:06;21.57;;;11.77;;
26040;SDS011;13816;53.628;9.950;2023-10-19T03:25:43;14.47;;;10.53;;
26040;SDS011;13816;53.628;9.950;2023-10-19T03:28:35;15.17;;;9.93;;
26040;SDS011;13816;53.628;9.950;2023-10-19T03:31:11;17.00;;;11.07;;
26040;SDS011;13816;53.628;9.950;2023-10-19T03:33:52;14.93;;;10.27;;
26040;SDS011;13816;53.628;9.950;2023-10-19T03:36:28;14.33;;;10.30;;
26040;SDS011;13816;53.628;9.950;2023-10-19T03:39:06;14.40;;;9.27;;
26040;SDS011;13816;53.628;9.950;2023-10-19T03:41:44;14.63;;;10.47;;
26040;SDS011;13816;53.628;9.950;2023-10-19T03:44:25;15.50;;;10.83;;
26040;SDS011;13816;53.628;9.950;2023-10-19T03:47:08;17.63;;;11.10;;
26040;SDS011;13816;53.628;9.950;2023-10-19T03:49:52;14.80;;;11.43;;
26040;SDS011;13816;53.628;9.950;2023-10-19T03:52:25;17.57;;;11.60;;
26040;SDS011;13816;53.628;9.950;2023-10-19T03:55:03;15.90;;;10.37;;
26040;SDS011;13816;53.628;9.950;2023-10-19T03:57:56;15.27;;;11.03;;
26040;SDS011;13816;53.628;9.950;2023-10-19T04:00:24;17.93;;;11.20;;
26040;SDS011;13816;53.628;9.950;2023-10-19T04:03:00;16.13;;;10.70;;
26040;SDS011;13816;53.628;9.950;2023-10-19T04:05:32;17.57;;;12.20;;
26040;SDS011;13816;53.628;9.950;2023-10-19T04:08:13;16.37;;;11.70;;
26040;SDS011;13816;53.628;9.950;2023-10-19T04:10:50;16.53;;;11.93;;
26040;SDS011;13816;53.628;9.950;2023-10-19T04:13:38;15.20;;;10.73;;
26040;SDS011;13816;53.628;9.950;2023-10-19T04:16:11;16.07;;;11.10;;
26040;SDS011;13816;53.628;9.950;2023-10-19T04:18:49;13.90;;;10.67;;
26040;SDS011;13816;53.628;9.950;2023-10-19T04:21:28;20.77;;;12.63;;
26040;SDS011;13816;53.628;9.950;2023-10-19T04:23:57;17.30;;;11.93;;
26040;SDS011;13816;53.628;9.950;2023-10-19T04:26:30;19.47;;;11.37;;
26040;SDS011;13816;53.628;9.950;2023-10-19T04:29:07;17.73;;;11.20;;
26040;SDS011;13816;53.628;9.950;2023-10-19T04:31:41;16.10;;;11.30;;
26040;SDS011;13816;53.628;9.950;2023-10-19T04:34:25;22.60;;;12.20;;
26040;SDS011;13816;53.628;9.950;2023-10-19T04:36:57;20.70;;;13.00;;
26040;SDS011;13816;53.628;9.950;2023-10-19T04:39:30;19.30;;;13.53;;
26040;SDS011;13816;53.628;9.950;2023-10-19T04:42:02;17.80;;;13.33;;
26040;SDS011;13816;53.628;9.950;2023-10-19T04:44:40;17.13;;;12.10;;
26040;SDS011;13816;53.628;9.950;2023-10-19T04:47:20;20.13;;;11.97;;
26040;SDS011;13816;53.628;9.950;2023-10-19T04:49:57;16.20;;;12.37;;
26040;SDS011;13816;53.628;9.950;2023-10-19T04:52:25;22.87;;;12.40;;
26040;SDS011;13816;53.628;9.950;2023-10-19T04:55:01;21.93;;;13.40;;
26040;SDS011;13816;53.628;9.950;2023-10-19T04:57:29;14.90;;;12.00;;
26040;SDS011;13816;53.628;9.950;2023-10-19T05:00:02;15.20;;;12.00;;
26040;SDS011;13816;53.628;9.950;2023-10-19T05:02:31;18.20;;;13.13;;
26040;SDS011;13816;53.628;9.950;2023-10-19T05:04:59;20.60;;;12.43;;
26040;SDS011;13816;53.628;9.950;2023-10-19T05:07:28;20.57;;;12.97;;
26040;SDS011;13816;53.628;9.950;2023-10-19T05:10:01;16.13;;;12.53;;
26040;SDS011;13816;53.628;9.950;2023-10-19T05:12:33;17.00;;;12.30;;
26040;SDS011;13816;53.628;9.950;2023-10-19T05:15:04;19.13;;;12.87;;
26040;SDS011;13816;53.628;9.950;2023-10-19T05:17:37;17.83;;;12.60;;
26040;SDS011;13816;53.628;9.950;2023-10-19T05:20:08;18.43;;;13.07;;
26040;SDS011;13816;53.628;9.950;2023-10-19T05:22:39;16.87;;;12.70;;
26040;SDS011;13816;53.628;9.950;2023-10-19T05:25:10;24.70;;;13.20;;
26040;SDS011;13816;53.628;9.950;2023-10-19T05:27:46;17.13;;;12.33;;
26040;SDS011;13816;53.628;9.950;2023-10-19T05:30:15;23.33;;;13.17;;
26040;SDS011;13816;53.628;9.950;2023-10-19T05:32:43;23.53;;;13.60;;
26040;SDS011;13816;53.628;9.950;2023-10-19T05:35:13;18.63;;;13.70;;
26040;SDS011;13816;53.628;9.950;2023-10-19T05:37:50;19.60;;;12.60;;
26040;SDS011;13816;53.628;9.950;2023-10-19T05:40:22;17.60;;;12.67;;
26040;SDS011;13816;53.628;9.950;2023-10-19T05:42:53;16.10;;;11.67;;
26040;SDS011;13816;53.628;9.950;2023-10-19T05:45:26;18.87;;;13.47;;
26040;SDS011;13816;53.628;9.950;2023-10-19T05:48:06;19.70;;;13.70;;
26040;SDS011;13816;53.628;9.950;2023-10-19T05:50:45;24.90;;;13.93;;
26040;SDS011;13816;53.628;9.950;2023-10-19T05:53:19;17.53;;;13.80;;
26040;SDS011;13816;53.628;9.950;2023-10-19T05:55:54;21.83;;;13.13;;
26040;SDS011;13816;53.628;9.950;2023-10-19T05:58:26;17.97;;;13.20;;
26040;SDS011;13816;53.628;9.950;2023-10-19T06:00:57;20.90;;;13.10;;
26040;SDS011;13816;53.628;9.950;2023-10-19T06:03:26;20.83;;;13.00;;
26040;SDS011;13816;53.628;9.950;2023-10-19T06:05:57;21.33;;;15.03;;
26040;SDS011;13816;53.628;9.950;2023-10-19T06:08:29;22.10;;;13.87;;
26040;SDS011;13816;53.628;9.950;2023-10-19T06:10:58;21.87;;;13.50;;
26040;SDS011;13816;53.628;9.950;2023-10-19T06:13:33;17.07;;;11.80;;
26040;SDS011;13816;53.628;9.950;2023-10-19T06:16:01;18.60;;;11.70;;
26040;SDS011;13816;53.628;9.950;2023-10-19T06:18:29;15.00;;;12.10;;
26040;SDS011;13816;53.628;9.950;2023-10-19T06:21:01;17.93;;;13.47;;
26040;SDS011;13816;53.628;9.950;2023-10-19T06:23:31;20.70;;;13.10;;
26040;SDS011;13816;53.628;9.950;2023-10-19T06:26:08;18.03;;;13.77;;
26040;SDS011;13816;53.628;9.950;2023-10-19T06:28:41;18.70;;;14.23;;
26040;SDS011;13816;53.628;9.950;2023-10-19T06:31:13;18.03;;;13.07;;
26040;SDS011;13816;53.628;9.950;2023-10-19T06:33:42;17.90;;;12.97;;
26040;SDS011;13816;53.628;9.950;2023-10-19T06:36:16;21.73;;;14.40;;
26040;SDS011;13816;53.628;9.950;2023-10-19T06:38:51;21.03;;;13.37;;
26040;SDS011;13816;53.628;9.950;2023-10-19T06:41:26;19.10;;;13.67;;
26040;SDS011;13816;53.628;9.950;2023-10-19T06:43:57;26.03;;;15.20;;
26040;SDS011;13816;53.628;9.950;2023-10-19T06:46:29;16.93;;;13.70;;
26040;SDS011;13816;53.628;9.950;2023-10-19T06:49:00;22.43;;;13.63;;
26040;SDS011;13816;53.628;9.950;2023-10-19T06:51:34;17.97;;;13.80;;
26040;SDS011;13816;53.628;9.950;2023-10-19T06:54:03;22.53;;;14.10;;
26040;SDS011;13816;53.628;9.950;2023-10-19T06:56:41;19.50;;;12.80;;
26040;SDS011;13816;53.628;9.950;2023-10-19T06:59:12;18.30;;;14.43;;
26040;SDS011;13816;53.628;9.950;2023-10-19T07:01:43;22.67;;;14.07;;
26040;SDS011;13816;53.628;9.950;2023-10-19T07:04:16;19.83;;;13.83;;
26040;SDS011;13816;53.628;9.950;2023-10-19T07:06:50;19.13;;;13.70;;
26040;SDS011;13816;53.628;9.950;2023-10-19T07:09:31;21.90;;;13.27;;
26040;SDS011;13816;53.628;9.950;2023-10-19T07:12:06;23.20;;;13.83;;
26040;SDS011;13816;53.628;9.950;2023-10-19T07:14:49;21.10;;;13.23;;
26040;SDS011;13816;53.628;9.950;2023-10-19T07:17:19;16.73;;;13.63;;
26040;SDS011;13816;53.628;9.950;2023-10-19T07:19:50;19.03;;;13.77;;
26040;SDS011;13816;53.628;9.950;2023-10-19T07:22:24;22.47;;;14.60;;
26040;SDS011;13816;53.628;9.950;2023-10-19T07:24:58;21.03;;;13.80;;
26040;SDS011;13816;53.628;9.950;2023-10-19T07:27:30;19.37;;;12.80;;
26040;SDS011;13816;53.628;9.950;2023-10-19T07:30:03;19.17;;;13.33;;
26040;SDS011;13816;53.628;9.950;2023-10-19T07:32:36;17.83;;;13.50;;
26040;SDS011;13816;53.628;9.950;2023-10-19T07:35:05;21.47;;;13.73;;
26040;SDS011;13816;53.628;9.950;2023-10-19T07:37:42;20.23;;;13.37;;
26040;SDS011;13816;53.628;9.950;2023-10-19T07:40:17;14.20;;;12.20;;
26040;SDS011;13816;53.628;9.950;2023-10-19T07:42:54;23.30;;;13.70;;
26040;SDS011;13816;53.628;9.950;2023-10-19T07:45:30;19.10;;;14.43;;
26040;SDS011;13816;53.628;9.950;2023-10-19T07:48:27;19.47;;;13.90;;
26040;SDS011;13816;53.628;9.950;2023-10-19T07:51:00;21.20;;;13.43;;
26040;SDS011;13816;53.628;9.950;2023-10-19T07:53:39;25.90;;;13.77;;
26040;SDS011;13816;53.628;9.950;2023-10-19T07:56:15;17.13;;;13.00;;
26040;SDS011;13816;53.628;9.950;2023-10-19T07:58:49;20.23;;;13.23;;
26040;SDS011;13816;53.628;9.950;2023-10-19T08:01:23;19.83;;;13.70;;
26040;SDS011;13816;53.628;9.950;2023-10-19T08:04:00;19.23;;;14.63;;
26040;SDS011;13816;53.628;9.950;2023-10-19T08:06:28;18.13;;;14.00;;
26040;SDS011;13816;53.628;9.950;2023-10-19T08:09:01;24.40;;;14.10;;
26040;SDS011;13816;53.628;9.950;2023-10-19T08:11:35;22.13;;;15.03;;
26040;SDS011;13816;53.628;9.950;2023-10-19T08:14:08;23.27;;;16.17;;
26040;SDS011;13816;53.628;9.950;2023-10-19T08:16:44;19.83;;;14.10;;
26040;SDS011;13816;53.628;9.950;2023-10-19T08:19:17;20.47;;;14.77;;
26040;SDS011;13816;53.628;9.950;2023-10-19T08:21:51;18.73;;;14.40;;
26040;SDS011;13816;53.628;9.950;2023-10-19T08:24:21;25.13;;;14.80;;
26040;SDS011;13816;53.628;9.950;2023-10-19T08:26:55;19.77;;;14.70;;
26040;SDS011;13816;53.628;9.950;2023-10-19T08:29:31;23.77;;;14.33;;
26040;SDS011;13816;53.628;9.950;2023-10-19T08:32:06;17.47;;;13.17;;
26040;SDS011;13816;53.628;9.950;2023-10-19T08:34:36;20.87;;;14.80;;
26040;SDS011;13816;53.628;9.950;2023-10-19T08:37:04;21.13;;;14.20;;
26040;SDS011;13816;53.628;9.950;2023-10-19T08:39:33;24.33;;;15.97;;
26040;SDS011;13816;53.628;9.950;2023-10-19T08:42:07;19.80;;;14.00;;
26040;SDS011;13816;53.628;9.950;2023-10-19T08:44:41;22.40;;;15.83;;
26040;SDS011;13816;53.628;9.950;2023-10-19T08:47:09;22.07;;;15.60;;
26040;SDS011;13816;53.628;9.950;2023-10-19T08:49:42;27.70;;;15.43;;
26040;SDS011;13816;53.628;9.950;2023-10-19T08:52:17;19.77;;;15.67;;
26040;SDS011;13816;53.628;9.950;2023-10-19T08:54:45;20.30;;;15.27;;
26040;SDS011;13816;53.628;9.950;2023-10-19T08:57:14;23.50;;;15.30;;
26040;SDS011;13816;53.628;9.950;2023-10-19T08:59:42;26.70;;;16.50;;
26040;SDS011;13816;53.628;9.950;2023-10-19T09:02:10;29.33;;;16.80;;
26040;SDS011;13816;53.628;9.950;2023-10-19T09:04:43;23.73;;;16.47;;
26040;SDS011;13816;53.628;9.950;2023-10-19T09:07:11;21.93;;;15.67;;
26040;SDS011;13816;53.628;9.950;2023-10-19T09:09:39;22.90;;;15.63;;
26040;SDS011;13816;53.628;9.950;2023-10-19T09:12:07;21.47;;;14.73;;
26040;SDS011;13816;53.628;9.950;2023-10-19T09:14:36;23.57;;;15.90;;
26040;SDS011;13816;53.628;9.950;2023-10-19T09:17:07;25.17;;;17.10;;
26040;SDS011;13816;53.628;9.950;2023-10-19T09:19:36;25.33;;;16.37;;
26040;SDS011;13816;53.628;9.950;2023-10-19T09:22:04;29.07;;;16.83;;
26040;SDS011;13816;53.628;9.950;2023-10-19T09:24:34;24.40;;;17.17;;
26040;SDS011;13816;53.628;9.950;2023-10-19T09:27:03;22.07;;;16.33;;
26040;SDS011;13816;53.628;9.950;2023-10-19T09:29:30;25.13;;;16.17;;
26040;SDS011;13816;53.628;9.950;2023-10-19T09:31:58;23.93;;;16.27;;
26040;SDS011;13816;53.628;9.950;2023-10-19T09:34:30;23.23;;;15.60;;
26040;SDS011;13816;53.628;9.950;2023-10-19T09:37:01;22.63;;;16.57;;
26040;SDS011;13816;53.628;9.950;2023-10-19T09:39:30;23.17;;;15.17;;
26040;SDS011;13816;53.628;9.950;2023-10-19T09:45:06;21.80;;;15.40;;
26040;SDS011;13816;53.628;9.950;2023-10-19T09:47:35;21.90;;;16.63;;
26040;SDS011;13816;53.628;9.950;2023-10-19T09:50:08;26.87;;;16.40;;
26040;SDS011;13816;53.628;9.950;2023-10-19T09:52:38;25.53;;;16.90;;
26040;SDS011;13816;53.628;9.950;2023-10-19T09:57:44;22.10;;;16.40;;
26040;SDS011;13816;53.628;9.950;2023-10-19T10:00:14;30.70;;;17.93;;
26040;SDS011;13816;53.628;9.950;2023-10-19T10:02:50;24.93;;;16.57;;
26040;SDS011;13816;53.628;9.950;2023-10-19T10:11:21;19.73;;;16.37;;
26040;SDS011;13816;53.628;9.950;2023-10-19T10:13:50;22.40;;;14.43;;
26040;SDS011;13816;53.628;9.950;2023-10-19T10:16:19;21.63;;;15.57;;
26040;SDS011;13816;53.628;9.950;2023-10-19T10:18:47;22.20;;;16.33;;
26040;SDS011;13816;53.628;9.950;2023-10-19T10:21:19;25.73;;;16.23;;
26040;SDS011;13816;53.628;9.950;2023-10-19T10:23:57;17.47;;;14.27;;
26040;SDS011;13816;53.628;9.950;2023-10-19T10:26:27;21.00;;;15.20;;
26040;SDS011;13816;53.628;9.950;2023-10-19T10:29:09;22.60;;;15.40;;
26040;SDS011;13816;53.628;9.950;2023-10-19T10:31:42;17.83;;;14.47;;
26040;SDS011;13816;53.628;9.950;2023-10-19T10:34:10;17.10;;;13.50;;
26040;SDS011;13816;53.628;9.950;2023-10-19T10:39:25;20.60;;;14.73;;
26040;SDS011;13816;53.628;9.950;2023-10-19T10:41:56;18.03;;;13.67;;
26040;SDS011;13816;53.628;9.950;2023-10-19T10:44:41;19.70;;;14.10;;
26040;SDS011;13816;53.628;9.950;2023-10-19T10:47:10;18.50;;;13.90;;
26040;SDS011;13816;53.628;9.950;2023-10-19T10:50:00;16.83;;;13.53;;
26040;SDS011;13816;53.628;9.950;2023-10-19T10:52:30;18.63;;;13.70;;
26040;SDS011;13816;53.628;9.950;2023-10-19T10:55:08;21.60;;;14.70;;
26040;SDS011;13816;53.628;9.950;2023-10-19T10:57:39;17.73;;;13.10;;
26040;SDS011;13816;53.628;9.950;2023-10-19T11:00:50;18.17;;;14.37;;
26040;SDS011;13816;53.628;9.950;2023-10-19T11:03:21;19.30;;;14.10;;
26040;SDS011;13816;53.628;9.950;2023-10-19T11:05:50;20.57;;;14.90;;
26040;SDS011;13816;53.628;9.950;2023-10-19T11:08:18;21.13;;;15.03;;
26040;SDS011;13816;53.628;9.950;2023-10-19T11:10:47;20.93;;;14.73;;
26040;SDS011;13816;53.628;9.950;2023-10-19T11:13:17;18.83;;;14.80;;
26040;SDS011;13816;53.628;9.950;2023-10-19T11:15:52;18.37;;;14.10;;
26040;SDS011;13816;53.628;9.950;2023-10-19T11:19:05;21.93;;;15.40;;
26040;SDS011;13816;53.628;9.950;2023-10-19T11:21:35;17.97;;;14.97;;
26040;SDS011;13816;53.628;9.950;2023-10-19T11:24:03;18.20;;;14.10;;
26040;SDS011;13816;53.628;9.950;2023-10-19T11:26:31;21.73;;;14.87;;
26040;SDS011;13816;53.628;9.950;2023-10-19T11:29:07;22.83;;;15.20;;
26040;SDS011;13816;53.628;9.950;2023-10-19T11:31:41;21.17;;;15.93;;
26040;SDS011;13816;53.628;9.950;2023-10-19T11:34:12;20.47;;;15.37;;
26040;SDS011;13816;53.628;9.950;2023-10-19T11:36:44;24.57;;;15.90;;
26040;SDS011;13816;53.628;9.950;2023-10-19T11:39:12;22.57;;;15.53;;
26040;SDS011;13816;53.628;9.950;2023-10-19T11:41:47;24.60;;;15.63;;
26040;SDS011;13816;53.628;9.950;2023-10-19T11:44:20;22.10;;;16.53;;
26040;SDS011;13816;53.628;9.950;2023-10-19T11:46:50;27.57;;;17.00;;
26040;SDS011;13816;53.628;9.950;2023-10-19T11:49:18;22.80;;;15.00;;
26040;SDS011;13816;53.628;9.950;2023-10-19T11:51:48;19.33;;;15.17;;
26040;SDS011;13816;53.628;9.950;2023-10-19T11:54:18;18.70;;;15.50;;
26040;SDS011;13816;53.628;9.950;2023-10-19T11:56:48;28.17;;;16.50;;
26040;SDS011;13816;53.628;9.950;2023-10-19T11:59:16;21.47;;;15.60;;
26040;SDS011;13816;53.628;9.950;2023-10-19T12:01:44;19.90;;;15.40;;
26040;SDS011;13816;53.628;9.950;2023-10-19T12:04:20;21.50;;;16.43;;
26040;SDS011;13816;53.628;9.950;2023-10-19T12:06:54;19.70;;;16.00;;
26040;SDS011;13816;53.628;9.950;2023-10-19T12:09:25;20.30;;;15.80;;
26040;SDS011;13816;53.628;9.950;2023-10-19T12:11:58;20.10;;;16.00;;
26040;SDS011;13816;53.628;9.950;2023-10-19T12:14:25;20.50;;;15.67;;
26040;SDS011;13816;53.628;9.950;2023-10-19T12:16:53;17.97;;;14.00;;
26040;SDS011;13816;53.628;9.950;2023-10-19T12:19:23;21.50;;;15.10;;
26040;SDS011;13816;53.628;9.950;2023-10-19T12:21:52;18.27;;;14.73;;
26040;SDS011;13816;53.628;9.950;2023-10-19T12:24:19;22.13;;;15.27;;
26040;SDS011;13816;53.628;9.950;2023-10-19T12:26:47;19.00;;;14.30;;
26040;SDS011;13816;53.628;9.950;2023-10-19T12:29:15;20.50;;;14.90;;
26040;SDS011;13816;53.628;9.950;2023-10-19T12:31:44;18.23;;;14.00;;
26040;SDS011;13816;53.628;9.950;2023-10-19T12:34:13;23.20;;;15.37;;
26040;SDS011;13816;53.628;9.950;2023-10-19T12:36:41;19.80;;;15.30;;
26040;SDS011;13816;53.628;9.950;2023-10-19T12:39:11;18.67;;;13.90;;
26040;SDS011;13816;53.628;9.950;2023-10-19T12:41:58;17.53;;;14.43;;
26040;SDS011;13816;53.628;9.950;2023-10-19T12:44:27;17.33;;;14.87;;
26040;SDS011;13816;53.628;9.950;2023-10-19T12:46:56;21.60;;;14.07;;
26040;SDS011;13816;53.628;9.950;2023-10-19T12:49:25;16.63;;;12.70;;
26040;SDS011;13816;53.628;9.950;2023-10-19T12:51:52;16.80;;;14.00;;
26040;SDS011;13816;53.628;9.950;2023-10-19T12:54:20;21.97;;;15.63;;
26040;SDS011;13816;53.628;9.950;2023-10-19T12:56:48;24.43;;;14.70;;
26040;SDS011;13816;53.628;9.950;2023-10-19T12:59:16;18.60;;;14.50;;
26040;SDS011;13816;53.628;9.950;2023-10-19T13:01:44;19.37;;;14.10;;
26040;SDS011;13816;53.628;9.950;2023-10-19T13:04:15;19.23;;;15.20;;
26040;SDS011;13816;53.628;9.950;2023-10-19T13:06:45;21.20;;;14.20;;
26040;SDS011;13816;53.628;9.950;2023-10-19T13:09:16;21.00;;;14.70;;
26040;SDS011;13816;53.628;9.950;2023-10-19T13:11:48;20.37;;;14.17;;
26040;SDS011;13816;53.628;9.950;2023-10-19T13:14:18;19.00;;;14.50;;
26040;SDS011;13816;53.628;9.950;2023-10-19T13:16:46;23.17;;;16.40;;
26040;SDS011;13816;53.628;9.950;2023-10-19T13:19:16;20.37;;;13.50;;
26040;SDS011;13816;53.628;9.950;2023-10-19T13:21:47;19.80;;;15.13;;
26040;SDS011;13816;53.628;9.950;2023-10-19T13:24:16;22.30;;;15.33;;
26040;SDS011;13816;53.628;9.950;2023-10-19T13:26:45;17.93;;;13.90;;
26040;SDS011;13816;53.628;9.950;2023-10-19T13:29:13;22.60;;;15.60;;
26040;SDS011;13816;53.628;9.950;2023-10-19T13:31:46;27.63;;;14.27;;
26040;SDS011;13816;53.628;9.950;2023-10-19T13:34:18;19.67;;;14.10;;
26040;SDS011;13816;53.628;9.950;2023-10-19T13:36:45;21.90;;;15.53;;
26040;SDS011;13816;53.628;9.950;2023-10-19T13:39:13;19.33;;;14.90;;
26040;SDS011;13816;53.628;9.950;2023-10-19T13:41:43;20.93;;;14.70;;
26040;SDS011;13816;53.628;9.950;2023-10-19T13:44:11;24.90;;;13.70;;
26040;SDS011;13816;53.628;9.950;2023-10-19T13:46:38;20.30;;;14.97;;
26040;SDS011;13816;53.628;9.950;2023-10-19T13:49:06;19.73;;;14.40;;
26040;SDS011;13816;53.628;9.950;2023-10-19T13:51:36;20.27;;;14.53;;
26040;SDS011;13816;53.628;9.950;2023-10-19T13:54:05;19.83;;;14.43;;
26040;SDS011;13816;53.628;9.950;2023-10-19T13:56:33;22.57;;;15.53;;
26040;SDS011;13816;53.628;9.950;2023-10-19T13:59:01;19.40;;;15.80;;
26040;SDS011;13816;53.628;9.950;2023-10-19T14:01:28;22.33;;;15.13;;
26040;SDS011;13816;53.628;9.950;2023-10-19T14:03:56;21.20;;;14.43;;
26040;SDS011;13816;53.628;9.950;2023-10-19T14:06:23;25.03;;;15.90;;
26040;SDS011;13816;53.628;9.950;2023-10-19T14:08:52;18.53;;;14.33;;
26040;SDS011;13816;53.628;9.950;2023-10-19T14:11:21;16.80;;;14.13;;
26040;SDS011;13816;53.628;9.950;2023-10-19T14:13:49;21.53;;;15.07;;
26040;SDS011;13816;53.628;9.950;2023-10-19T14:16:19;19.30;;;13.90;;
26040;SDS011;13816;53.628;9.950;2023-10-19T14:18:47;16.93;;;14.40;;
26040;SDS011;13816;53.628;9.950;2023-10-19T14:21:14;19.77;;;14.10;;
26040;SDS011;13816;53.628;9.950;2023-10-19T14:23:43;21.63;;;14.73;;
26040;SDS011;13816;53.628;9.950;2023-10-19T14:26:12;20.53;;;14.93;;
26040;SDS011;13816;53.628;9.950;2023-10-19T14:28:40;20.80;;;13.80;;
26040;SDS011;13816;53.628;9.950;2023-10-19T14:31:08;21.43;;;14.20;;
26040;SDS011;13816;53.628;9.950;2023-10-19T14:33:37;21.17;;;15.43;;
26040;SDS011;13816;53.628;9.950;2023-10-19T14:36:04;21.60;;;15.23;;
26040;SDS011;13816;53.628;9.950;2023-10-19T14:38:33;20.27;;;15.13;;
26040;SDS011;13816;53.628;9.950;2023-10-19T14:41:00;22.83;;;15.73;;
26040;SDS011;13816;53.628;9.950;2023-10-19T14:43:28;20.80;;;15.67;;
26040;SDS011;13816;53.628;9.950;2023-10-19T14:45:59;23.83;;;15.80;;
26040;SDS011;13816;53.628;9.950;2023-10-19T14:48:28;23.13;;;15.13;;
26040;SDS011;13816;53.628;9.950;2023-10-19T14:50:56;22.27;;;15.17;;
26040;SDS011;13816;53.628;9.950;2023-10-19T14:53:24;24.57;;;16.30;;
26040;SDS011;13816;53.628;9.950;2023-10-19T14:55:52;25.00;;;15.60;;
26040;SDS011;13816;53.628;9.950;2023-10-19T14:58:22;25.00;;;15.73;;
26040;SDS011;13816;53.628;9.950;2023-10-19T15:00:51;19.80;;;14.77;;
26040;SDS011;13816;53.628;9.950;2023-10-19T15:03:22;25.43;;;15.10;;
26040;SDS011;13816;53.628;9.950;2023-10-19T15:44:00;22.83;;;17.57;;
26040;SDS011;13816;53.628;9.950;2023-10-19T15:46:39;24.10;;;17.53;;
26040;SDS011;13816;53.628;9.950;2023-10-19T15:49:14;29.60;;;20.03;;
26040;SDS011;13816;53.628;9.950;2023-10-19T15:51:56;28.80;;;18.23;;